Time;durP1;ratioP1;P1;durP2;ratioP2;P2;SDS_P1;SDS_P2;PMS_P1;PMS_P2;Temp;Humidity;BMP_temperature;BMP_pressure;BME280_temperature;BME280_humidity;BME280_pressure;Samples;Min_cycle;Max_cycle;Signal;HPM_P1;HPM_P2
2022/06/07 00:01:06;;;;;;;7.47;4.25;;;;;;;12.36;100.00;100915.09;1735729;82;21011;-43
2022/06/07 00:03:33;;;;;;;8.35;4.35;;;;;;;12.33;100.00;100908.66;1744108;82;21108;-43
2022/06/07 00:06:00;;;;;;;6.08;4.08;;;;;;;12.30;100.00;100907.85;1744224;82;21536;-43
2022/06/07 00:08:28;;;;;;;9.95;4.17;;;;;;;12.28;100.00;100906.60;1744270;82;20999;-43
2022/06/07 00:10:55;;;;;;;6.00;4.05;;;;;;;12.29;100.00;100904.42;1744350;82;21386;-43
2022/06/07 00:13:23;;;;;;;6.05;3.90;;;;;;;12.28;100.00;100910.50;1744168;82;20960;-43
2022/06/07 00:15:49;;;;;;;4.10;3.60;;;;;;;12.23;100.00;100904.51;1744246;81;21242;-43
2022/06/07 00:18:16;;;;;;;13.40;3.62;;;;;;;12.19;100.00;100908.05;1744018;82;20991;-43
2022/06/07 00:20:44;;;;;;;3.67;3.35;;;;;;;12.12;100.00;100904.70;1746700;81;21441;-43
2022/06/07 00:23:13;;;;;;;8.33;3.27;;;;;;;12.07;100.00;100904.80;1750034;81;20941;-43
2022/06/07 00:25:43;;;;;;;3.58;2.62;;;;;;;12.03;100.00;100907.04;1749961;82;20920;-43
2022/06/07 00:28:10;;;;;;;5.00;3.08;;;;;;;12.02;100.00;100908.34;1750089;82;21164;-43
2022/06/07 00:30:38;;;;;;;8.53;2.95;;;;;;;12.01;100.00;100914.00;1722992;82;21046;-43
2022/06/07 00:33:05;;;;;;;7.85;2.87;;;;;;;12.03;100.00;100916.13;1750100;82;20940;-43
2022/06/07 00:35:32;;;;;;;2.70;2.50;;;;;;;12.05;100.00;100910.89;1698528;82;21359;-43
2022/06/07 00:38:00;;;;;;;4.33;2.60;;;;;;;12.06;100.00;100906.11;1750043;82;21019;-43
2022/06/07 00:40:27;;;;;;;25.12;3.10;;;;;;;12.04;100.00;100910.05;1750096;82;21236;-43
2022/06/07 00:42:54;;;;;;;4.85;2.80;;;;;;;12.00;100.00;100903.17;1749966;82;20916;-43
2022/06/07 00:45:22;;;;;;;3.62;2.47;;;;;;;11.99;100.00;100907.92;1749952;82;20905;-43
2022/06/07 00:47:49;;;;;;;11.57;2.72;;;;;;;11.98;100.00;100899.72;1749869;81;20877;-43
2022/06/07 00:50:47;;;;;;;3.85;2.40;;;;;;;11.97;100.00;100900.61;1749859;80;21003;-43
2022/06/07 00:53:30;;;;;;;3.67;2.40;;;;;;;11.98;100.00;100898.88;1749955;82;20838;-43
2022/06/07 00:55:59;;;;;;;2.60;2.27;;;;;;;11.95;100.00;100893.30;1749707;82;20967;-43
2022/06/07 00:58:28;;;;;;;6.97;2.42;;;;;;;11.91;100.00;100898.13;1749991;81;20974;-43
2022/06/07 01:00:57;;;;;;;3.25;2.40;;;;;;;11.91;100.00;100898.99;1749851;82;21040;-43
2022/06/07 01:03:26;;;;;;;3.27;2.47;;;;;;;11.90;100.00;100897.28;1750019;82;20988;-43
2022/06/07 01:05:54;;;;;;;8.65;2.15;;;;;;;11.87;100.00;100896.47;1749907;82;21028;-43
2022/06/07 01:11:10;;;;;;;6.20;2.15;;;;;;;11.78;100.00;100892.28;1749900;82;20845;-42
2022/06/07 01:13:38;;;;;;;6.45;1.95;;;;;;;11.77;100.00;100891.87;1723088;82;21478;-43
2022/06/07 01:16:13;;;;;;;2.75;2.33;;;;;;;11.75;100.00;100895.80;1750071;82;20885;-43
2022/06/07 01:18:42;;;;;;;3.00;1.70;;;;;;;11.72;100.00;100898.41;1748689;82;21177;-42
2022/06/07 01:21:33;;;;;;;12.30;2.10;;;;;;;11.70;100.00;100909.26;1740888;82;21499;-42
2022/06/07 01:24:01;;;;;;;3.90;1.50;;;;;;;11.69;100.00;100908.00;1736047;82;21352;-43
2022/06/07 01:26:30;;;;;;;2.95;1.80;;;;;;;11.67;100.00;100901.53;1734484;82;21043;-42
2022/06/07 01:28:58;;;;;;;9.50;2.08;;;;;;;11.66;100.00;100899.82;1736017;82;21043;-43
2022/06/07 01:31:25;;;;;;;2.45;1.70;;;;;;;11.63;100.00;100900.74;1736053;81;21534;-43
2022/06/07 01:33:52;;;;;;;6.10;1.70;;;;;;;11.62;100.00;100904.22;1735957;82;20909;-43
2022/06/07 01:36:19;;;;;;;2.30;1.50;;;;;;;11.60;100.00;100904.66;1714860;82;21497;-42
2022/06/07 01:41:53;;;;;;;7.47;2.30;;;;;;;11.57;100.00;100915.08;1736025;81;21016;-42
2022/06/07 01:44:01;;;;;;;3.92;1.80;;;;;;;11.53;100.00;100917.76;1736167;82;21196;-42
2022/06/07 01:46:28;;;;;;;2.50;1.80;;;;;;;11.48;100.00;100905.70;1735812;81;21004;-43
2022/06/07 01:48:56;;;;;;;5.15;2.10;;;;;;;11.45;100.00;100913.98;1736097;82;21454;-43
2022/06/07 01:51:23;;;;;;;8.33;2.30;;;;;;;11.40;100.00;100906.72;1735951;82;20937;-43
2022/06/07 01:53:50;;;;;;;8.30;2.52;;;;;;;11.34;100.00;100907.66;1735922;81;20997;-42
2022/06/07 01:56:17;;;;;;;7.15;2.42;;;;;;;11.30;100.00;100904.69;1735867;82;21352;-42
2022/06/07 01:58:46;;;;;;;6.58;2.12;;;;;;;11.25;100.00;100900.02;1735752;81;21015;-43
2022/06/07 02:01:14;;;;;;;5.37;2.60;;;;;;;11.18;100.00;100901.37;1736021;82;21423;-43
2022/06/07 02:03:41;;;;;;;2.05;1.70;;;;;;;11.18;100.00;100905.72;1735973;82;21000;-43
2022/06/07 02:06:12;;;;;;;3.27;2.20;;;;;;;11.15;100.00;100908.36;1736035;82;20937;-43
2022/06/07 02:08:41;;;;;;;6.72;2.02;;;;;;;11.14;100.00;100906.64;1736079;82;21474;-43
2022/06/07 02:11:13;;;;;;;7.03;2.25;;;;;;;11.14;100.00;100908.78;1677952;82;20921;-42
2022/06/07 02:13:42;;;;;;;7.08;2.17;;;;;;;11.15;100.00;100907.91;1735986;81;21534;-43
2022/06/07 02:16:09;;;;;;;2.62;2.25;;;;;;;11.17;100.00;100907.89;1735961;82;21024;-42
2022/06/07 02:18:36;;;;;;;6.00;2.12;;;;;;;11.23;100.00;100906.93;1736048;82;21023;-43
2022/06/07 02:21:06;;;;;;;6.17;2.05;;;;;;;11.28;100.00;100905.16;1734624;81;21224;-43
2022/06/07 02:23:35;;;;;;;10.50;2.10;;;;;;;11.34;100.00;100907.66;1735838;81;20893;-42
2022/06/07 02:26:21;;;;;;;6.78;2.22;;;;;;;11.38;100.00;100909.31;1736022;82;20862;-43
2022/06/07 02:28:56;;;;;;;5.08;2.35;;;;;;;11.43;100.00;100913.15;1736024;81;20929;-43
2022/06/07 02:31:23;;;;;;;4.67;2.17;;;;;;;11.47;100.00;100920.84;1735977;82;21436;-42
2022/06/07 02:33:51;;;;;;;6.17;2.08;;;;;;;11.53;100.00;100919.06;1736057;82;21240;-43
2022/06/07 02:36:18;;;;;;;3.77;2.05;;;;;;;11.59;100.00;100917.66;1735692;81;20921;-43
2022/06/07 02:38:45;;;;;;;8.80;2.47;;;;;;;11.64;100.00;100918.44;1736190;82;21707;-42
2022/06/07 02:41:15;;;;;;;9.18;2.60;;;;;;;11.67;100.00;100920.98;1735819;81;20957;-42
2022/06/07 02:43:42;;;;;;;4.00;2.50;;;;;;;11.74;100.00;100917.86;1735901;82;20953;-43
2022/06/07 02:46:09;;;;;;;7.92;2.42;;;;;;;11.82;100.00;100925.06;1735970;82;21223;-42
2022/06/07 02:48:37;;;;;;;7.33;2.60;;;;;;;11.88;100.00;100926.28;1736008;81;21443;-43
2022/06/07 02:51:05;;;;;;;5.62;3.22;;;;;;;11.96;100.00;100931.78;1735925;81;20893;-43
2022/06/07 02:53:32;;;;;;;8.33;5.97;;;;;;;12.01;100.00;100929.99;1736002;82;20921;-43
2022/06/07 02:56:00;;;;;;;7.12;4.58;;;;;;;12.06;100.00;100932.93;1735951;81;21538;-44
2022/06/07 02:58:29;;;;;;;5.72;3.22;;;;;;;12.12;100.00;100932.41;1735839;82;22144;-43
2022/06/07 03:01:00;;;;;;;5.72;2.62;;;;;;;12.18;100.00;100933.16;1735811;82;20985;-43
2022/06/07 03:03:29;;;;;;;4.83;2.70;;;;;;;12.26;100.00;100939.95;1735742;81;20902;-43
2022/06/07 03:05:56;;;;;;;9.50;2.90;;;;;;;12.32;100.00;100942.00;1735982;82;21020;-43
2022/06/07 03:08:23;;;;;;;3.60;2.37;;;;;;;12.39;100.00;100941.45;1735840;81;21569;-43
2022/06/07 03:10:52;;;;;;;6.62;2.27;;;;;;;12.47;100.00;100938.69;1735791;82;21855;-43
2022/06/07 03:13:19;;;;;;;7.17;2.05;;;;;;;12.53;100.00;100941.20;1735819;82;20964;-43
2022/06/07 03:15:47;;;;;;;2.92;1.67;;;;;;;12.62;100.00;100933.64;1735988;82;21015;-43
2022/06/07 03:18:14;;;;;;;2.35;1.67;;;;;;;12.69;100.00;100933.96;1735917;82;21000;-43
2022/06/07 03:20:47;;;;;;;4.28;1.82;;;;;;;12.77;100.00;100935.95;1736728;81;20865;-43
2022/06/07 03:23:14;;;;;;;2.05;1.60;;;;;;;12.87;100.00;100937.92;1749297;82;21442;-43
2022/06/07 03:25:42;;;;;;;7.12;1.70;;;;;;;12.98;100.00;100937.70;1749952;82;20905;-43
2022/06/07 03:28:09;;;;;;;10.55;1.65;;;;;;;13.07;100.00;100935.36;1749861;82;20897;-43
2022/06/07 03:30:36;;;;;;;7.03;1.90;;;;;;;13.19;100.00;100939.45;1749908;82;20971;-43
2022/06/07 03:33:06;;;;;;;3.90;1.77;;;;;;;13.34;100.00;100939.55;1749896;81;21358;-44
2022/06/07 03:35:33;;;;;;;5.20;1.80;;;;;;;13.48;100.00;100933.61;1749898;82;21140;-43
2022/06/07 03:38:01;;;;;;;3.58;1.47;;;;;;;13.65;100.00;100929.34;1749990;82;20845;-43
2022/06/07 03:40:44;;;;;;;5.08;1.42;;;;;;;13.88;100.00;100925.76;1749915;82;20972;-43
2022/06/07 03:43:13;;;;;;;4.00;2.10;;;;;;;14.18;100.00;100924.56;1749894;82;21038;-43
2022/06/07 03:45:40;;;;;;;1.60;1.50;;;;;;;14.58;100.00;100926.11;1750071;82;20937;-43
2022/06/07 03:48:09;;;;;;;1.37;1.27;;;;;;;14.99;100.00;100921.08;1750038;81;21147;-43
2022/06/07 03:50:37;;;;;;;6.62;1.90;;;;;;;15.37;99.48;100917.77;1749808;81;20928;-43
2022/06/07 03:53:05;;;;;;;4.87;1.07;;;;;;;15.76;97.73;100916.08;1750007;82;20929;-43
2022/06/07 03:55:33;;;;;;;11.73;1.75;;;;;;;16.20;95.96;100919.45;1750029;82;20985;-43
2022/06/07 03:58:05;;;;;;;4.70;1.12;;;;;;;16.60;93.82;100912.39;1749735;82;20964;-43
2022/06/07 04:00:32;;;;;;;4.47;1.50;;;;;;;16.99;91.30;100917.53;1722472;82;22151;-43
2022/06/07 04:03:00;;;;;;;9.68;2.35;;;;;;;17.31;89.55;100917.60;1749977;82;21549;-43
2022/06/07 04:05:27;;;;;;;8.23;1.42;;;;;;;17.66;87.97;100919.72;1750004;82;20969;-43
2022/06/07 04:08:13;;;;;;;3.27;1.22;;;;;;;17.99;85.73;100920.53;1750069;82;21359;-43
2022/06/07 04:11:00;;;;;;;4.67;1.35;;;;;;;18.33;83.97;100919.13;1750094;80;20967;-44
2022/06/07 04:13:35;;;;;;;2.47;1.20;;;;;;;18.67;82.07;100921.55;1735899;82;21120;-44
2022/06/07 04:16:12;;;;;;;7.45;1.10;;;;;;;18.96;80.14;100917.22;1749740;82;20917;-42
2022/06/07 04:18:42;;;;;;;2.95;1.20;;;;;;;19.24;77.91;100916.78;1749808;81;20940;-42
2022/06/07 04:21:10;;;;;;;6.25;1.22;;;;;;;19.60;76.44;100918.19;1748340;81;20968;-42
2022/06/07 04:23:37;;;;;;;3.17;1.30;;;;;;;19.87;73.05;100923.82;1735913;81;20886;-42
2022/06/07 04:26:12;;;;;;;2.65;1.02;;;;;;;20.04;70.33;100923.00;1735932;81;21419;-42
2022/06/07 04:28:40;;;;;;;2.58;0.90;;;;;;;20.08;68.26;100931.13;1735959;81;21036;-43
2022/06/07 04:31:19;;;;;;;8.48;1.07;;;;;;;20.23;66.78;100941.77;1715120;82;21534;-43
2022/06/07 04:33:47;;;;;;;2.42;1.00;;;;;;;20.32;65.59;100944.39;1715070;82;21019;-43
2022/06/07 04:36:19;;;;;;;2.85;1.17;;;;;;;20.44;64.22;100941.59;1736011;82;20960;-43
2022/06/07 04:38:48;;;;;;;2.20;1.07;;;;;;;20.66;63.89;100939.52;1736119;82;21130;-45
2022/06/07 04:41:17;;;;;;;2.37;1.37;;;;;;;21.03;63.43;100937.17;1735787;81;20971;-45
2022/06/07 04:43:49;;;;;;;2.95;1.27;;;;;;;21.22;65.26;100935.70;1736141;81;20894;-45
2022/06/07 04:46:17;;;;;;;2.27;1.35;;;;;;;21.24;66.12;100928.56;1735777;82;20960;-45
2022/06/07 04:48:46;;;;;;;3.22;1.07;;;;;;;21.37;66.15;100931.36;1736045;82;20925;-44
2022/06/07 04:51:28;;;;;;;4.37;1.50;;;;;;;21.47;65.18;100936.47;1735729;82;21365;-45
2022/06/07 04:54:00;;;;;;;9.20;1.30;;;;;;;21.49;65.56;100933.28;1735759;82;21040;-43
2022/06/07 04:56:36;;;;;;;4.20;1.20;;;;;;;21.58;65.17;100931.05;1736036;82;20960;-45
2022/06/07 04:59:05;;;;;;;5.67;1.30;;;;;;;21.71;65.74;100926.81;1735890;81;21347;-43
2022/06/07 05:01:36;;;;;;;4.58;1.47;;;;;;;21.87;65.03;100930.71;1715186;82;20981;-42
2022/06/07 05:04:05;;;;;;;3.15;1.00;;;;;;;22.06;64.85;100926.51;1736084;82;21799;-43
2022/06/07 05:06:37;;;;;;;2.62;1.20;;;;;;;22.16;63.31;100933.89;1735878;82;20902;-43
2022/06/07 05:09:17;;;;;;;7.58;1.07;;;;;;;22.34;61.96;100934.07;1734967;82;20858;-43
2022/06/07 05:11:50;;;;;;;5.33;1.65;;;;;;;22.68;59.72;100937.78;1735901;81;20862;-42
2022/06/07 05:14:19;;;;;;;4.10;1.80;;;;;;;23.03;58.02;100931.23;1735957;82;20973;-43
2022/06/07 05:16:48;;;;;;;2.83;1.98;;;;;;;23.40;55.80;100939.47;1735966;82;21055;-42
2022/06/07 05:19:18;;;;;;;4.00;1.20;;;;;;;23.71;53.95;100933.94;1735857;81;20984;-44
2022/06/07 05:21:47;;;;;;;1.65;0.90;;;;;;;24.00;51.42;100929.34;1735844;81;20968;-44
2022/06/07 05:24:13;;;;;;;3.27;0.82;;;;;;;24.13;50.25;100936.48;1735889;81;21019;-44
2022/06/07 05:26:51;;;;;;;1.17;1.07;;;;;;;24.24;50.47;100940.55;1736284;82;20997;-45
2022/06/07 05:29:35;;;;;;;3.75;1.10;;;;;;;24.45;51.01;100934.73;1735805;82;21800;-44
2022/06/07 05:32:04;;;;;;;4.60;0.90;;;;;;;24.61;49.67;100936.66;1736072;82;21502;-44
2022/06/07 05:34:31;;;;;;;4.15;1.10;;;;;;;24.87;48.75;100934.48;1735971;82;21439;-43
2022/06/07 05:36:58;;;;;;;1.50;0.88;;;;;;;25.00;49.32;100939.23;1736126;82;20926;-44
2022/06/07 05:39:28;;;;;;;8.08;1.10;;;;;;;25.27;47.86;100934.25;1735977;82;20929;-43
2022/06/07 05:41:57;;;;;;;2.55;1.10;;;;;;;25.16;48.11;100938.14;1735976;82;21031;-44
2022/06/07 05:44:25;;;;;;;3.33;0.95;;;;;;;25.15;47.54;100937.31;1735882;82;20981;-43
2022/06/07 05:46:53;;;;;;;2.77;1.00;;;;;;;25.30;47.43;100934.48;1735974;82;20949;-43
2022/06/07 05:49:28;;;;;;;10.50;1.02;;;;;;;25.54;47.07;100929.22;1734269;82;20898;-43
2022/06/07 05:52:01;;;;;;;4.03;1.37;;;;;;;25.81;44.86;100926.28;1735514;82;20972;-43
2022/06/07 05:54:31;;;;;;;4.50;0.90;;;;;;;25.90;45.14;100928.71;1736156;82;22038;-43
2022/06/07 05:56:59;;;;;;;8.55;1.00;;;;;;;26.01;44.97;100927.89;1735886;82;20937;-43
2022/06/07 05:59:26;;;;;;;5.75;0.90;;;;;;;26.20;44.44;100931.82;1736017;81;21577;-43
2022/06/07 06:01:53;;;;;;;4.45;1.20;;;;;;;26.37;44.21;100919.39;1735830;81;20929;-43
2022/06/07 06:04:20;;;;;;;6.17;0.75;;;;;;;26.51;42.79;100924.94;1735954;81;20909;-44
2022/06/07 06:06:48;;;;;;;4.37;1.20;;;;;;;26.59;42.89;100923.00;1736019;82;22157;-43
2022/06/07 06:12:03;;;;;;;2.22;1.10;;;;;;;26.93;43.12;100927.00;1736015;82;20964;-43
2022/06/07 06:14:35;;;;;;;14.58;1.15;;;;;;;26.80;41.64;100928.91;1734712;82;20945;-44
2022/06/07 06:17:04;;;;;;;5.17;1.00;;;;;;;26.80;40.82;100934.21;1735442;82;20885;-45
2022/06/07 06:19:33;;;;;;;2.60;0.80;;;;;;;26.77;40.64;100935.29;1735427;82;21170;-45
2022/06/07 06:22:01;;;;;;;3.50;0.80;;;;;;;26.77;40.06;100935.79;1738707;81;20916;-44
2022/06/07 06:24:28;;;;;;;3.05;0.78;;;;;;;26.66;40.75;100929.54;1749926;82;21541;-44
2022/06/07 06:26:56;;;;;;;7.05;0.90;;;;;;;26.54;38.75;100931.82;1749886;82;20976;-44
2022/06/07 06:29:25;;;;;;;8.05;0.85;;;;;;;26.43;38.93;100932.66;1750155;82;21470;-44
2022/06/07 06:31:54;;;;;;;2.27;1.07;;;;;;;26.36;37.93;100926.16;1749721;82;21463;-44
2022/06/07 06:34:21;;;;;;;10.03;0.85;;;;;;;26.24;38.13;100924.81;1749868;82;20968;-44
2022/06/07 06:36:48;;;;;;;7.30;0.88;;;;;;;26.21;39.29;100932.18;1750026;82;20917;-43
2022/06/07 06:39:15;;;;;;;1.52;0.80;;;;;;;26.22;38.56;100931.22;1749981;82;20935;-44
2022/06/07 06:41:46;;;;;;;4.78;0.68;;;;;;;26.11;38.54;100922.23;1749916;82;20853;-44
2022/06/07 06:44:13;;;;;;;4.65;0.70;;;;;;;26.13;37.30;100931.41;1722388;82;21143;-44
2022/06/07 06:46:43;;;;;;;6.10;1.00;;;;;;;26.06;38.13;100927.05;1749824;82;20900;-44
2022/06/07 06:49:12;;;;;;;1.65;0.60;;;;;;;26.05;38.72;100922.72;1722584;82;20983;-44
2022/06/07 06:51:41;;;;;;;3.12;0.80;;;;;;;26.14;38.16;100926.94;1749792;81;21511;-44
2022/06/07 06:54:11;;;;;;;3.62;1.20;;;;;;;26.21;37.09;100925.55;1749890;82;20924;-44
2022/06/07 06:56:43;;;;;;;4.45;0.85;;;;;;;26.21;37.87;100917.59;1739227;82;21107;-44
2022/06/07 06:59:15;;;;;;;2.10;1.00;;;;;;;26.26;38.32;100914.09;1749451;81;21011;-44
2022/06/07 07:01:43;;;;;;;4.20;0.82;;;;;;;26.14;37.44;100921.63;1749704;81;20885;-44
2022/06/07 07:04:15;;;;;;;5.75;0.88;;;;;;;25.88;38.57;100919.17;1750059;82;21465;-44
2022/06/07 07:06:42;;;;;;;15.23;1.10;;;;;;;25.90;38.50;100910.66;1722590;82;20944;-44
2022/06/07 07:09:10;;;;;;;1.90;0.78;;;;;;;26.03;38.06;100911.37;1749848;82;22056;-44
2022/06/07 07:11:42;;;;;;;3.90;0.70;;;;;;;26.14;36.90;100903.92;1749905;82;20924;-44
2022/06/07 07:14:10;;;;;;;5.55;0.80;;;;;;;26.00;36.47;100910.30;1749958;82;20964;-43
2022/06/07 07:16:44;;;;;;;7.10;0.80;;;;;;;25.79;36.52;100909.64;1749941;82;20928;-44
2022/06/07 07:19:12;;;;;;;10.48;0.80;;;;;;;25.50;36.76;100910.51;1749939;82;20877;-43
2022/06/07 07:21:42;;;;;;;5.05;0.60;;;;;;;25.27;36.38;100909.55;1749859;82;21247;-43
2022/06/07 07:24:20;;;;;;;9.45;0.80;;;;;;;24.99;37.05;100908.92;1749643;81;20932;-44
2022/06/07 07:26:49;;;;;;;16.65;1.17;;;;;;;24.88;38.29;100913.67;1749617;82;21438;-45
2022/06/07 07:29:19;;;;;;;5.42;0.80;;;;;;;24.92;38.95;100917.31;1749770;81;21022;-44
2022/06/07 07:31:46;;;;;;;5.60;0.60;;;;;;;25.04;37.13;100909.42;1749990;82;21544;-44
2022/06/07 07:34:14;;;;;;;1.65;0.55;;;;;;;25.20;37.71;100911.33;1749828;81;21097;-44
2022/06/07 07:38:21;;;;;;;3.80;0.70;;;;;;;25.87;36.54;100910.86;1816286;79;22576;-44
2022/06/07 07:40:48;;;;;;;3.37;1.00;;;;;;;26.19;36.02;100902.28;1789241;80;20909;-44
2022/06/07 07:43:16;;;;;;;0.50;0.50;;;;;;;26.44;36.52;100909.14;1789430;80;21249;-44
2022/06/07 07:45:42;;;;;;;5.70;0.70;;;;;;;26.72;34.93;100907.45;1789332;79;20909;-44
2022/06/07 07:48:12;;;;;;;0.68;0.60;;;;;;;26.87;35.34;100908.05;1789531;80;20944;-45
2022/06/07 07:50:40;;;;;;;0.60;0.50;;;;;;;26.84;34.06;100907.77;1789181;80;20849;-45
2022/06/07 07:53:08;;;;;;;4.80;1.40;;;;;;;26.62;33.16;100905.51;1789309;80;21441;-44
2022/06/07 07:55:36;;;;;;;3.75;0.53;;;;;;;26.53;34.02;100909.77;1773655;80;21248;-44
2022/06/07 07:58:04;;;;;;;1.80;0.60;;;;;;;26.74;34.06;100902.86;1750154;80;20833;-44
2022/06/07 08:00:31;;;;;;;2.00;0.60;;;;;;;26.93;34.99;100904.42;1789339;80;21070;-44
2022/06/07 08:02:59;;;;;;;1.35;0.60;;;;;;;26.82;34.62;100909.23;1788964;80;20900;-44
2022/06/07 08:05:32;;;;;;;2.05;0.55;;;;;;;26.78;33.79;100912.25;1788009;80;20876;-44
2022/06/07 08:08:00;;;;;;;1.95;0.90;;;;;;;26.90;33.55;100905.97;1789163;80;21964;-45
2022/06/07 08:10:29;;;;;;;3.50;0.72;;;;;;;27.06;33.94;100898.09;1789299;80;20924;-44
2022/06/07 08:12:58;;;;;;;2.60;0.60;;;;;;;27.42;35.71;100905.34;1789339;80;21454;-44
2022/06/07 08:15:26;;;;;;;1.47;0.70;;;;;;;27.76;32.68;100901.20;1789161;80;20960;-45
2022/06/07 08:17:53;;;;;;;5.83;0.60;;;;;;;27.82;31.78;100907.32;1789239;80;20880;-44
2022/06/07 08:20:21;;;;;;;11.63;0.82;;;;;;;27.90;32.41;100905.34;1789415;80;21071;-45
2022/06/07 08:22:49;;;;;;;0.60;0.50;;;;;;;28.02;31.55;100903.45;1789253;80;21014;-45
2022/06/07 08:25:16;;;;;;;3.30;0.40;;;;;;;27.96;31.71;100898.16;1789446;80;20979;-44
2022/06/07 08:27:43;;;;;;;2.50;0.57;;;;;;;28.09;31.86;100895.28;1789234;80;20888;-44
2022/06/07 08:30:13;;;;;;;1.67;0.53;;;;;;;28.45;32.35;100892.25;1789384;79;20936;-45
2022/06/07 08:32:42;;;;;;;3.02;0.75;;;;;;;28.73;29.92;100887.14;1789244;80;21395;-44
2022/06/07 08:37:58;;;;;;;0.72;0.70;;;;;;;28.98;29.29;100884.96;1779271;80;20944;-43
2022/06/07 08:40:35;;;;;;;0.80;0.70;;;;;;;28.76;30.65;100888.19;1775625;80;20971;-44
2022/06/07 08:43:15;;;;;;;0.62;0.57;;;;;;;28.66;30.35;100880.17;1775574;80;21023;-45
2022/06/07 08:45:42;;;;;;;2.45;0.68;;;;;;;28.73;30.24;100884.98;1775748;80;21071;-45
2022/06/07 08:48:28;;;;;;;2.83;0.75;;;;;;;28.65;30.59;100886.48;1775565;80;20830;-44
2022/06/07 08:51:24;;;;;;;1.15;0.60;;;;;;;28.62;29.75;100876.11;1775010;80;20980;-43
2022/06/07 08:53:55;;;;;;;2.30;0.60;;;;;;;28.77;30.46;100874.40;1774370;80;21301;-44
2022/06/07 08:56:25;;;;;;;1.05;0.70;;;;;;;28.84;29.52;100872.06;1774985;80;20913;-44
2022/06/07 08:58:52;;;;;;;3.33;0.80;;;;;;;28.57;30.16;100877.52;1775112;80;21228;-44
2022/06/07 09:01:48;;;;;;;1.00;0.60;;;;;;;28.43;29.94;100878.74;1775025;80;21352;-44
2022/06/07 09:04:25;;;;;;;11.03;1.00;;;;;;;28.62;31.22;100873.45;1769566;80;20901;-44
2022/06/07 09:06:57;;;;;;;2.08;0.68;;;;;;;28.92;31.19;100877.03;1753786;80;20873;-43
2022/06/07 09:12:09;;;;;;;4.08;0.90;;;;;;;28.88;30.76;100878.29;1774633;80;21007;-43
2022/06/07 09:12:14;;;;;;;3.52;0.93;;;;;;;28.48;31.24;100878.66;1772125;80;21496;-44
2022/06/07 09:14:55;;;;;;;1.00;0.90;;;;;;;28.10;31.80;100882.34;1775087;80;20885;-44
2022/06/07 09:17:36;;;;;;;4.95;0.90;;;;;;;27.71;32.81;100878.16;1777699;80;20849;-43
2022/06/07 09:20:06;;;;;;;2.55;1.00;;;;;;;27.31;33.91;100870.84;1775077;80;20976;-45
2022/06/07 09:22:54;;;;;;;0.70;0.70;;;;;;;27.33;34.59;100868.89;1778654;80;21011;-44
2022/06/07 09:25:42;;;;;;;0.70;0.70;;;;;;;27.38;34.45;100859.57;1759635;80;21190;-45
2022/06/07 09:28:14;;;;;;;3.15;0.78;;;;;;;27.31;33.73;100862.39;1754027;80;20932;-44
2022/06/07 09:30:44;;;;;;;18.45;1.70;;;;;;;27.49;34.41;100864.45;1775214;80;20984;-43
2022/06/07 09:33:31;;;;;;;17.85;1.47;;;;;;;27.74;33.55;100871.24;1778562;80;21398;-44
2022/06/07 09:36:08;;;;;;;8.28;1.00;;;;;;;28.07;34.57;100863.98;1774932;80;20888;-44
2022/06/07 09:38:41;;;;;;;26.68;3.02;;;;;;;28.30;32.07;100858.52;1781938;80;21197;-44
2022/06/07 09:41:36;;;;;;;74.42;4.67;;;;;;;28.47;33.78;100858.86;1765355;80;20893;-45
2022/06/07 09:44:21;;;;;;;14.25;1.50;;;;;;;28.63;32.37;100853.83;1778786;80;27245;-44
2022/06/07 09:47:02;;;;;;;61.65;3.15;;;;;;;28.78;32.77;100852.94;1783294;80;20936;-44
2022/06/07 09:49:43;;;;;;;10.95;0.90;;;;;;;28.89;32.56;100849.34;1783362;80;20869;-44
2022/06/07 09:52:31;;;;;;;44.93;3.12;;;;;;;29.10;31.65;100854.55;1759247;80;21284;-45
2022/06/07 09:55:06;;;;;;;35.73;2.75;;;;;;;29.09;33.22;100852.02;1783207;80;20877;-44
2022/06/07 09:57:41;;;;;;;18.10;1.60;;;;;;;29.22;32.78;100852.59;1780255;80;20889;-45
2022/06/07 10:00:24;;;;;;;24.92;1.62;;;;;;;29.36;30.18;100849.98;1783422;80;21091;-45
2022/06/07 10:03:27;;;;;;;14.50;1.20;;;;;;;29.46;31.44;100846.00;1783263;80;20920;-45
2022/06/07 10:06:05;;;;;;;6.30;0.82;;;;;;;29.56;32.93;100843.80;1783182;80;22268;-44
2022/06/07 10:09:09;;;;;;;20.00;1.70;;;;;;;29.85;30.04;100842.88;1782995;80;20940;-44
2022/06/07 10:12:06;;;;;;;11.68;0.90;;;;;;;29.95;30.86;100841.03;1783087;80;20987;-45
2022/06/07 10:14:58;;;;;;;34.03;2.67;;;;;;;29.98;29.28;100840.73;1782913;80;20940;-45
2022/06/07 10:18:00;;;;;;;8.10;1.00;;;;;;;29.66;30.23;100840.13;1783488;80;20940;-45
2022/06/07 10:21:11;;;;;;;22.10;1.30;;;;;;;29.64;32.47;100842.10;1783417;80;21119;-44
2022/06/07 10:23:47;;;;;;;74.03;5.10;;;;;;;29.90;29.75;100834.80;1783196;80;20885;-43
2022/06/07 10:26:49;;;;;;;2.22;1.00;;;;;;;30.32;30.50;100835.35;1783509;80;20892;-44
2022/06/07 10:29:27;;;;;;;11.10;1.52;;;;;;;30.34;29.17;100831.52;1783413;80;21034;-46
2022/06/07 10:32:08;;;;;;;4.78;0.80;;;;;;;30.20;29.22;100836.87;1782556;80;20940;-45
2022/06/07 10:35:05;;;;;;;10.03;0.90;;;;;;;30.08;29.16;100830.88;1783174;80;22390;-43
2022/06/07 10:37:49;;;;;;;8.85;1.45;;;;;;;30.15;29.27;100830.28;1780863;80;21549;-44
2022/06/07 10:40:51;;;;;;;4.05;1.12;;;;;;;30.28;29.42;100831.27;1775315;80;21079;-45
2022/06/07 10:43:22;;;;;;;13.83;1.42;;;;;;;30.36;30.29;100828.72;1775169;80;21035;-44
2022/06/07 10:45:51;;;;;;;33.18;2.75;;;;;;;30.33;30.23;100828.51;1775047;80;21470;-45
2022/06/07 10:48:25;;;;;;;45.85;3.05;;;;;;;30.33;29.22;100821.02;1775128;80;21133;-44
2022/06/07 10:51:05;;;;;;;13.25;1.22;;;;;;;30.41;31.39;100822.43;1773354;80;20888;-44
2022/06/07 10:53:39;;;;;;;7.12;1.30;;;;;;;30.30;30.32;100814.61;1746847;80;21085;-43
2022/06/07 10:56:18;;;;;;;50.33;3.58;;;;;;;30.29;29.65;100815.12;1746580;80;20984;-44
2022/06/07 10:58:48;;;;;;;31.37;2.42;;;;;;;30.27;29.00;100808.24;1765426;80;20957;-44
2022/06/07 11:01:23;;;;;;;6.58;0.82;;;;;;;30.23;29.34;100808.55;1770077;80;21230;-45
2022/06/07 11:09:19;;;;;;;77.12;4.67;;;;;;;29.98;28.68;100810.05;1769487;80;20960;-44
2022/06/07 11:09:38;;;;;;;40.65;3.58;;;;;;;29.95;28.66;100810.36;1769055;80;20944;-44
2022/06/07 11:12:16;;;;;;;44.60;3.15;;;;;;;29.92;28.98;100806.14;1762733;80;20942;-45
2022/06/07 11:15:19;;;;;;;32.88;2.85;;;;;;;29.84;30.62;100802.05;1771729;80;20989;-45
2022/06/07 11:17:59;;;;;;;20.00;1.77;;;;;;;29.87;29.99;100806.23;1758778;80;21517;-45
2022/06/07 11:20:28;;;;;;;19.52;1.75;;;;;;;29.79;29.34;100798.47;1750655;80;21334;-44
2022/06/07 11:23:10;;;;;;;8.35;1.20;;;;;;;29.39;30.00;100800.86;1751535;80;21007;-44
2022/06/07 11:26:08;;;;;;;5.37;0.78;;;;;;;29.23;30.44;100802.78;1770142;80;21449;-44
2022/06/07 11:28:44;;;;;;;10.78;1.05;;;;;;;29.08;30.97;100798.39;1774774;80;21099;-44
2022/06/07 11:31:39;;;;;;;4.30;1.00;;;;;;;29.03;30.54;100793.98;1762455;80;20999;-45
2022/06/07 11:34:27;;;;;;;12.97;1.17;;;;;;;29.19;30.47;100797.40;1759079;80;20972;-46
2022/06/07 11:37:12;;;;;;;9.15;1.10;;;;;;;29.07;30.49;100796.70;1754965;80;21099;-45
2022/06/07 11:39:55;;;;;;;101.00;7.08;;;;;;;28.85;32.19;100789.34;1769361;80;21003;-46
2022/06/07 11:42:33;;;;;;;14.13;1.40;;;;;;;29.11;32.24;100792.30;1756335;80;21961;-46
2022/06/07 11:45:25;;;;;;;11.45;1.12;;;;;;;29.35;30.96;100792.33;1752214;82;20928;-45
2022/06/07 11:48:14;;;;;;;17.42;1.45;;;;;;;29.36;29.46;100790.48;1766833;80;21453;-44
2022/06/07 11:50:46;;;;;;;10.70;1.20;;;;;;;29.43;30.57;100792.98;1752950;80;20901;-44
2022/06/07 11:53:22;;;;;;;6.42;0.95;;;;;;;29.83;29.55;100788.36;1751316;80;21014;-44
2022/06/07 11:55:52;;;;;;;8.08;1.20;;;;;;;30.07;28.57;100784.36;1778680;80;21282;-45
2022/06/07 11:58:24;;;;;;;12.80;1.60;;;;;;;30.27;30.04;100781.55;1779761;80;21465;-44
2022/06/07 12:00:52;;;;;;;6.25;1.20;;;;;;;30.46;28.69;100777.94;1676801;83;20893;-45
2022/06/07 12:03:28;;;;;;;30.05;1.62;;;;;;;30.68;28.04;100776.16;1772118;79;21010;-45